Tempos de volta de RENTAL KART DRIVERS - BLACK DRIVERS - PROVA 12 - 22:30
KARTODROMO INTERNACIONAL GRANJA VIANA a funcionar KGV RACE TRACKS - CIRCUITO 105
Tempos de volta de RENTAL - KART DRIVERS - BLACK DRIVERS - PROVA 12 - 22:30


Hora do dia Volta Volta do Líder Volta Tm Velocidade
025 - PAULO TORRES - RENTAL
22:40:33.311 1 1 46.857 56,086
22:41:16.269 2 2 42.958 61,176
22:41:58.474 3 3 42.205 62,268
22:42:40.793 4 4 42.319 62,100
22:43:22.975 5 5 42.182 62,301
22:44:05.583 6 6 42.608 61,679
22:44:47.886 7 7 42.303 62,123
22:45:30.099 8 8 42.213 62,256
22:46:12.332 9 9 42.233 62,226
22:46:54.553 10 10 42.221 62,244
22:47:36.552 11 11 41.999 62,573
22:48:18.738 12 12 42.186 62,296
22:49:00.687 13 13 41.949 62,648
22:49:42.592 14 14 41.905 62,713
22:50:24.469 15 15 41.877 62,755
22:51:06.476 16 16 42.007 62,561
22:51:48.290 17 17 41.814 62,850
22:52:30.293 18 18 42.003 62,567
22:53:12.336 19 19 42.043 62,507
22:53:54.283 20 20 41.947 62,650
22:54:35.975 21 21 41.692 63,034
22:55:19.099 22 22 43.124 60,941
22:56:04.967 23 23 45.868 57,295
22:56:47.029 24 24 42.062 62,479
22:57:29.670 25 25 42.641 61,631
031 - MIGUEL VERCA - RENTAL
22:40:33.135 1 1 46.317 56,739
22:41:15.931 2 2 42.796 61,408
22:41:58.236 3 3 42.305 62,120
22:42:40.764 4 4 42.528 61,795
22:43:23.399 5 5 42.635 61,639
22:44:06.793 6 6 43.394 60,561
22:44:48.699 7 7 41.906 62,712
22:45:31.214 8 8 42.515 61,813
22:46:13.080 9 9 41.866 62,772
22:46:55.301 10 10 42.221 62,244
22:47:37.462 11 11 42.161 62,332
22:48:20.256 12 12 42.794 61,410
22:49:02.326 13 13 42.070 62,467
22:49:44.455 14 14 42.129 62,380
22:50:26.690 15 15 42.235 62,223
22:51:08.791 16 16 42.101 62,421
22:51:50.967 17 17 42.176 62,310
22:52:33.025 18 18 42.058 62,485
22:53:15.158 19 19 42.133 62,374
22:53:57.395 20 20 42.237 62,220
22:54:39.554 21 21 42.159 62,335
22:55:21.698 22 22 42.144 62,358
22:56:04.573 23 23 42.875 61,294
22:56:46.792 24 24 42.219 62,247
22:57:29.964 25 25 43.172 60,873
052 - MARCOS BARONE - RENTAL
22:40:33.566 1 1 48.113 54,621
22:41:16.781 2 2 43.215 60,812
22:41:58.922 3 3 42.141 62,362
22:42:40.966 4 4 42.044 62,506
22:43:23.687 5 5 42.721 61,515
22:44:06.433 6 6 42.746 61,479
22:44:48.374 7 7 41.941 62,659
22:45:30.417 8 8 42.043 62,507
22:46:12.437 9 9 42.020 62,542
22:46:54.845 10 10 42.408 61,969
22:47:36.866 11 11 42.021 62,540
22:48:18.843 12 12 41.977 62,606
22:49:01.055 13 13 42.212 62,257
22:49:42.717 14 14 41.662 63,079
22:50:24.595 15 15 41.878 62,754
22:51:06.580 16 16 41.985 62,594
22:51:48.405 17 17 41.825 62,833
22:52:30.398 18 18 41.993 62,582
22:53:12.247 19 19 41.849 62,797
22:53:53.956 20 20 41.709 63,008
22:54:35.879 21 21 41.923 62,686
22:55:18.996 22 22 43.117 60,950
22:56:08.116 23 23 49.120 53,502
22:56:50.316 24 24 42.200 62,275
22:57:32.526 25 25 42.210 62,260
009 - MATHEUS COUTINHO - RENTAL
22:40:32.846 1 1 47.374 55,473
22:41:15.635 2 2 42.789 61,418
22:41:57.987 3 3 42.352 62,051
22:42:40.352 4 4 42.365 62,032
22:43:23.014 5 5 42.662 61,600
22:44:05.933 6 6 42.919 61,232
22:44:48.327 7 7 42.394 61,990
22:45:30.628 8 8 42.301 62,126
22:46:12.923 9 9 42.295 62,135
22:46:55.092 10 10 42.169 62,321
22:47:37.366 11 11 42.274 62,166
22:48:20.360 12 12 42.994 61,125
22:49:02.561 13 13 42.201 62,273
22:49:45.248 14 14 42.687 61,564
22:50:27.607 15 15 42.359 62,041
22:51:10.213 16 16 42.606 61,681
22:51:52.671 17 17 42.458 61,896
22:52:35.138 18 18 42.467 61,883
22:53:17.603 19 19 42.465 61,886
22:54:00.248 20 20 42.645 61,625
22:54:42.679 21 21 42.431 61,936
22:55:25.182 22 22 42.503 61,831
22:56:08.641 23 23 43.459 60,471
22:56:50.963 24 24 42.322 62,095
22:57:33.867 25 25 42.904 61,253
048 - RENAN CORDEIRO - RENTAL
22:40:30.699 1 1 45.247 58,081
22:41:13.064 2 2 42.365 62,032
22:41:55.397 3 3 42.333 62,079
22:42:37.842 4 4 42.445 61,915
22:43:19.931 5 5 42.089 62,439
22:44:02.367 6 6 42.436 61,929
22:44:44.583 7 7 42.216 62,251
22:45:26.888 8 8 42.305 62,120
22:46:09.051 9 9 42.163 62,330
22:46:51.358 10 10 42.307 62,117
22:47:33.590 11 11 42.232 62,228
22:48:15.933 12 12 42.343 62,065
22:48:58.123 13 13 42.190 62,290
22:49:40.283 14 14 42.160 62,334
22:50:22.449 15 15 42.166 62,325
22:51:05.016 16 16 42.567 61,738
22:51:47.219 17 17 42.203 62,270
22:52:29.217 18 18 41.998 62,574
22:53:11.323 19 19 42.106 62,414
22:53:53.441 20 20 42.118 62,396
22:54:35.753 21 21 42.312 62,110
22:55:18.950 22 22 43.197 60,838
22:56:02.170 23 23 43.220 60,805
22:56:44.757 24 24 42.587 61,709
22:57:37.446 25 25 52.689 49,878
045 - CRISTIAN PETICOV - RENTAL
22:40:39.958 1 1 53.547 49,078
22:41:22.510 2 2 42.552 61,760
22:42:04.794 3 3 42.284 62,151
22:42:47.279 4 4 42.485 61,857
22:43:29.583 5 5 42.304 62,122
22:44:11.889 6 6 42.306 62,119
22:44:54.042 7 7 42.153 62,344
22:45:36.235 8 8 42.193 62,285
22:46:18.806 9 9 42.571 61,732
22:47:01.001 10 10 42.195 62,282
22:47:43.261 11 11 42.260 62,186
22:48:25.483 12 12 42.222 62,242
22:49:07.762 13 13 42.279 62,159
22:49:49.991 14 14 42.229 62,232
22:50:32.240 15 15 42.249 62,203
22:51:14.455 16 16 42.215 62,253
22:51:56.530 17 17 42.075 62,460
22:52:38.707 18 18 42.177 62,309
22:53:21.072 19 19 42.365 62,032
22:54:04.069 20 20 42.997 61,121
22:54:46.427 21 21 42.358 62,043
22:55:28.805 22 22 42.378 62,013
22:56:11.580 23 23 42.775 61,438
22:56:55.564 24 24 43.984 59,749
22:57:39.048 25 25 43.484 60,436
016 - GIULIANO BORTOLUCI - RENTAL
22:40:33.736 1 1 45.707 57,497
22:41:17.837 2 2 44.101 59,590
22:41:59.927 3 3 42.090 62,438
22:42:41.777 4 4 41.850 62,796
22:43:24.456 5 5 42.679 61,576
22:44:07.645 6 6 43.189 60,849
22:44:49.973 7 7 42.328 62,087
22:45:33.012 8 8 43.039 61,061
22:46:15.657 9 9 42.645 61,625
22:46:57.780 10 10 42.123 62,389
22:47:40.752 11 11 42.972 61,156
22:48:22.953 12 12 42.201 62,273
22:49:05.072 13 13 42.119 62,395
22:49:47.161 14 14 42.089 62,439
22:50:30.968 15 15 43.807 59,990
22:51:13.079 16 16 42.111 62,406
22:51:55.354 17 17 42.275 62,164
22:52:38.109 18 18 42.755 61,466
22:53:21.571 19 19 43.462 60,467
22:54:04.413 20 20 42.842 61,342
22:54:46.888 21 21 42.475 61,872
22:55:28.947 22 22 42.059 62,484
22:56:11.899 23 23 42.952 61,185
22:56:55.941 24 24 44.042 59,670
22:57:39.338 25 25 43.397 60,557
024 - JON KR - RENTAL
22:40:34.127 1 1 48.239 54,479
22:41:18.911 2 2 44.784 58,682
22:42:01.204 3 3 42.293 62,138
22:42:43.403 4 4 42.199 62,276
22:43:25.565 5 5 42.162 62,331
22:44:07.961 6 6 42.396 61,987
22:44:50.208 7 7 42.247 62,206
22:45:32.875 8 8 42.667 61,593
22:46:15.199 9 9 42.324 62,092
22:46:57.650 10 10 42.451 61,907
22:47:40.165 11 11 42.515 61,813
22:48:22.327 12 12 42.162 62,331
22:49:04.467 13 13 42.140 62,364
22:49:46.863 14 14 42.396 61,987
22:50:30.471 15 15 43.608 60,264
22:51:12.865 16 16 42.394 61,990
22:51:55.002 17 17 42.137 62,368
22:52:41.838 18 18 46.836 56,111
22:53:24.273 19 19 42.435 61,930
22:54:07.183 20 20 42.910 61,244
22:54:49.576 21 21 42.393 61,991
22:55:31.907 22 22 42.331 62,082
22:56:14.427 23 23 42.520 61,806
22:56:56.806 24 24 42.379 62,012
22:57:39.638 25 25 42.832 61,356
011 - RICHARD MATHIAS - RENTAL
22:40:33.973 1 1 45.146 58,211
22:41:20.338 2 2 46.365 56,681
22:42:03.006 3 3 42.668 61,592
22:42:45.726 4 4 42.720 61,517
22:43:28.154 5 5 42.428 61,940
22:44:10.644 6 6 42.490 61,850
22:44:53.523 7 7 42.879 61,289
22:45:36.120 8 8 42.597 61,694
22:46:19.500 9 9 43.380 60,581
22:47:01.899 10 10 42.399 61,983
22:47:44.418 11 11 42.519 61,808
22:48:27.083 12 12 42.665 61,596
22:49:09.453 13 13 42.370 62,025
22:49:51.932 14 14 42.479 61,866
22:50:34.534 15 15 42.602 61,687
22:51:17.189 16 16 42.655 61,611
22:52:00.574 17 17 43.385 60,574
22:52:43.200 18 18 42.626 61,653
22:53:25.586 19 19 42.386 62,002
22:54:08.485 20 20 42.899 61,260
22:54:51.398 21 21 42.913 61,240
22:55:33.740 22 22 42.342 62,066
22:56:16.051 23 23 42.311 62,112
22:56:58.615 24 24 42.564 61,742
22:57:41.191 25 25 42.576 61,725
041 - GUSTAVO MARQUES - RENTAL
22:40:33.422 1 1 46.246 56,827
22:41:17.277 2 2 43.855 59,925
22:41:59.330 3 3 42.053 62,493
22:42:41.589 4 4 42.259 62,188
22:43:24.058 5 5 42.469 61,880
22:44:07.238 6 6 43.180 60,862
22:44:49.749 7 7 42.511 61,819
22:45:32.298 8 8 42.549 61,764
22:46:24.531 9 9 52.233 50,313
22:47:07.195 10 10 42.664 61,598
22:47:49.724 11 11 42.529 61,793
22:48:31.977 12 12 42.253 62,197
22:49:14.373 13 13 42.396 61,987
22:49:56.916 14 14 42.543 61,773
22:50:39.407 15 15 42.491 61,848
22:51:21.736 16 16 42.329 62,085
22:52:04.160 17 17 42.424 61,946
22:52:46.709 18 18 42.549 61,764
22:53:29.200 19 19 42.491 61,848
22:54:11.664 20 20 42.464 61,888
22:54:54.098 21 21 42.434 61,931
22:55:37.573 22 22 43.475 60,449
22:56:19.797 23 23 42.224 62,239
22:57:02.471 24 24 42.674 61,583
22:57:45.206 25 25 42.735 61,495
023 - WAGNER RODRIGUES - RENTAL
22:40:33.095 1 1 47.140 55,749
22:41:16.157 2 2 43.062 61,028
22:41:59.090 3 3 42.933 61,212
22:42:41.150 4 4 42.060 62,482
22:43:24.368 5 5 43.218 60,808
22:44:08.092 6 6 43.724 60,104
22:44:50.505 7 7 42.413 61,962
22:45:33.584 8 8 43.079 61,004
22:46:15.874 9 9 42.290 62,142
22:46:58.110 10 10 42.236 62,222
22:47:40.534 11 11 42.424 61,946
22:48:22.614 12 12 42.080 62,452
22:49:04.763 13 13 42.149 62,350
22:49:47.042 14 14 42.279 62,159
22:50:29.569 15 15 42.527 61,796
22:51:12.137 16 16 42.568 61,737
22:51:54.529 17 17 42.392 61,993
22:52:37.199 18 18 42.670 61,589
22:53:21.422 19 19 44.223 59,426
22:54:53.297 20 21 1:31.875 28,604
22:55:38.189 21 22 44.892 58,540
010 - HENRIQUE BRUNO - RENTAL
22:40:33.566 1 1 45.691 57,517
22:41:27.988 2 2 54.422 48,289
22:42:10.351 3 3 42.363 62,035
22:42:52.574 4 4 42.223 62,241
22:43:34.844 5 5 42.270 62,172
22:44:16.980 6 6 42.136 62,369
22:44:59.230 7 7 42.250 62,201
22:45:41.404 8 8 42.174 62,313
22:46:23.685 9 9 42.281 62,156
22:47:05.739 10 10 42.054 62,491
22:47:47.786 11 11 42.047 62,501
22:48:29.779 12 12 41.993 62,582
22:49:11.732 13 13 41.953 62,642
22:49:53.553 14 14 41.821 62,839
22:50:35.610 15 15 42.057 62,487
22:51:17.471 16 16 41.861 62,779
22:51:59.868 17 17 42.397 61,986
22:52:41.895 18 18 42.027 62,531
22:53:24.033 19 19 42.138 62,367
22:54:06.293 20 20 42.260 62,186
22:54:48.516 21 21 42.223 62,241
22:55:30.438 22 22 41.922 62,688
22:56:12.376 23 23 41.938 62,664
22:56:55.674 24 24 43.298 60,696
22:57:39.335 25 25 43.661 60,191
020 - DANIEL XAVIER - RENTAL
22:40:33.609 1 1 49.264 53,345
22:41:18.714 2 2 45.105 58,264
22:42:00.814 3 3 42.100 62,423
22:42:42.746 4 4 41.932 62,673
22:43:24.891 5 5 42.145 62,356
22:44:07.493 6 6 42.602 61,687
22:44:49.828 7 7 42.335 62,076
22:45:32.448 8 8 42.620 61,661
22:46:16.219 9 9 43.771 60,040
22:46:58.444 10 10 42.225 62,238
22:47:41.031 11 11 42.587 61,709
22:48:23.521 12 12 42.490 61,850
22:49:05.609 13 13 42.088 62,441
22:49:47.468 14 14 41.859 62,782
22:50:30.336 15 15 42.868 61,304
22:51:12.657 16 16 42.321 62,097
22:51:54.840 17 17 42.183 62,300
22:52:37.375 18 18 42.535 61,784
22:53:21.234 19 19 43.859 59,919
22:54:07.030 20 20 45.796 57,385
22:54:49.336 21 21 42.306 62,119
22:55:36.852 22 22 47.516 55,308
Gerada em 14/09/2021 23:12